Airfield :
LOGIN :

Register | Disclaimer

   EN    FR    IT 

 










Legend :    VFR   Marginal VFR   IFR   Intensive IFR   Very Intensive IFR
Visi :
Ceiling :
>= 8 km
>= 3000ft
5 to 8 km
1000 to 3000 ft
1500m to 5 km
500 to 1000 ft
800 to 1500m
200 to 500 ft
< 800m
< 200 ft
Symbols :   Thunderstorms  Fog  Heavy snow  Heavy precipitations  Wind > 20 kt
SIGMETs :     Misc.  Thunderstorms  Icing  Turbulence  Mountain Waves  Volcanic Ashes







- Airport Elevation : 681 ft
- IATA code : LBA
- Download approach charts


EGNM - Leeds Bradford

CURRENT METAR :
  • 121550Z 14014KT 9999 FEW012 SCT019 04/01 Q1020

EXPIRED METARs :
  • 121520Z 14011KT 110V170 9999 FEW010 BKN017 04/02 Q1020
  • 121450Z 14013KT 9999 BKN015 05/02 Q1020
  • 121420Z 14011KT 9999 BKN013 05/03 Q1020
  • 121350Z 14011KT 8000 SCT008 BKN011 05/04 Q1020
  • 121320Z 14008KT 8000 SCT008 BKN011 04/03 Q1020
  • 121250Z 13009KT 8000 SCT009 BKN012 04/03 Q1021

TAF AMD TAF EGNM
Valid from the 12 at 14:00 until the 13 at 12:00 UTC


121418Z 1214/1312 14009KT 8000 BKN011
BECMG 1214/1217 9999 NSW FEW005 SCT020
TEMPO 1217/1310 BKN012
PROB30
TEMPO 1300/1309 8000 BKN005
ATIS : +44 113 250 9696 (x2489)
No reported NOTAMs for that airfield.



MET'MAP, your aeronautical weather chart ! - Copyright ORBIFLY December 2007 - Disclaimer

ORBIFLY MET'MAP TEAM :

Programming & Development : Alexandra Zaïnal
Concept & Development : Baudouin d'Aumeries
Co-Development & Prog : Marc-Olivier Méhu
Technical & hardware support : Manuel Goepfert

Contact : metmap@orbifly.com




SOURCES & CREDITS :

   NOAA